createdAt,value
2022-08-29T00:00:06.716Z,101888.00
2022-08-29T00:02:34.037Z,101886.00
2022-08-29T00:05:03.454Z,101876.00
2022-08-29T00:07:30.695Z,101882.00
2022-08-29T00:09:57.876Z,101871.00
2022-08-29T00:12:25.220Z,101876.00
2022-08-29T00:14:54.817Z,101878.00
2022-08-29T00:17:22.000Z,101863.00
2022-08-29T00:19:49.128Z,101879.00
2022-08-29T00:22:16.361Z,101879.00
2022-08-29T00:24:43.669Z,101874.00
2022-08-29T00:27:10.855Z,101877.00
2022-08-29T00:29:38.093Z,101872.00
2022-08-29T00:32:05.737Z,101870.00
2022-08-29T00:34:33.040Z,101872.00
2022-08-29T00:37:00.405Z,101873.00
2022-08-29T00:39:28.076Z,101869.00
2022-08-29T00:42:15.251Z,101877.00
2022-08-29T00:44:42.413Z,101883.00
2022-08-29T00:47:16.128Z,101888.00
2022-08-29T00:49:48.745Z,101890.00
2022-08-29T00:52:39.756Z,101888.00
2022-08-29T00:55:13.490Z,101893.00
2022-08-29T00:57:48.137Z,101885.00
2022-08-29T01:00:17.973Z,101886.00
2022-08-29T01:02:47.733Z,101886.00
2022-08-29T01:05:19.953Z,101891.00
2022-08-29T01:07:48.717Z,101889.00
2022-08-29T01:10:35.619Z,101888.00
2022-08-29T01:13:05.518Z,101897.00
2022-08-29T01:15:34.382Z,101900.00
2022-08-29T01:18:03.896Z,101905.00
2022-08-29T01:20:46.778Z,101895.00
2022-08-29T01:23:24.041Z,101894.00
2022-08-29T01:25:52.872Z,101888.00
2022-08-29T01:28:32.536Z,101894.00
2022-08-29T01:31:37.278Z,101897.00
2022-08-29T01:34:05.617Z,101891.00
2022-08-29T01:36:53.676Z,101900.00
2022-08-29T01:39:28.974Z,101899.00
2022-08-29T01:41:58.722Z,101900.00
2022-08-29T01:44:26.502Z,101894.00
2022-08-29T01:47:02.491Z,101891.00
2022-08-29T01:49:38.464Z,101896.00
2022-08-29T01:52:08.981Z,101893.00
2022-08-29T01:54:36.601Z,101899.00
2022-08-29T01:57:04.290Z,101904.00
2022-08-29T01:59:32.565Z,101893.00
2022-08-29T02:02:11.543Z,101901.00
2022-08-29T02:04:41.082Z,101904.00
2022-08-29T02:07:12.019Z,101903.00
2022-08-29T02:09:45.530Z,101910.00
2022-08-29T02:12:15.336Z,101906.00
2022-08-29T02:14:43.548Z,101905.00
2022-08-29T02:17:11.194Z,101906.00
2022-08-29T02:19:39.869Z,101914.00
2022-08-29T02:22:07.709Z,101902.00
2022-08-29T02:24:35.078Z,101910.00
2022-08-29T02:27:02.943Z,101902.00
2022-08-29T02:29:30.887Z,101900.00
2022-08-29T02:32:12.195Z,101906.00
2022-08-29T02:34:42.036Z,101903.00
2022-08-29T02:37:12.803Z,101897.00
2022-08-29T02:39:40.021Z,101905.00
2022-08-29T02:42:07.496Z,101893.00
2022-08-29T02:44:35.011Z,101897.00
2022-08-29T02:47:02.241Z,101893.00
2022-08-29T02:49:30.254Z,101898.00
2022-08-29T02:51:57.931Z,101898.00
2022-08-29T02:54:25.085Z,101894.00
2022-08-29T02:56:52.443Z,101889.00
2022-08-29T02:59:19.669Z,101892.00
2022-08-29T03:01:47.204Z,101895.00
2022-08-29T03:04:34.195Z,101894.00
2022-08-29T03:07:01.435Z,101893.00
2022-08-29T03:09:28.726Z,101897.00
2022-08-29T03:11:56.752Z,101888.00
2022-08-29T03:14:26.003Z,101889.00
2022-08-29T03:16:53.735Z,101886.00
2022-08-29T03:19:21.057Z,101882.00
2022-08-29T03:21:48.285Z,101887.00
2022-08-29T03:24:15.955Z,101869.00
2022-08-29T03:26:56.592Z,101883.00
2022-08-29T03:29:25.071Z,101883.00
2022-08-29T03:31:52.426Z,101893.00
2022-08-29T03:34:20.594Z,101883.00
2022-08-29T03:36:47.803Z,101901.00
2022-08-29T03:39:15.057Z,101886.00
2022-08-29T03:41:42.718Z,101893.00
2022-08-29T03:44:10.065Z,101879.00
2022-08-29T03:46:39.321Z,101873.00
2022-08-29T03:49:08.341Z,101878.00
2022-08-29T03:51:39.044Z,101860.00
2022-08-29T03:54:07.013Z,101860.00
2022-08-29T03:56:34.741Z,101870.00
2022-08-29T03:59:01.997Z,101863.00
2022-08-29T04:01:29.950Z,101857.00
2022-08-29T04:03:58.862Z,101858.00
2022-08-29T04:06:30.111Z,101861.00
2022-08-29T04:08:59.160Z,101853.00
2022-08-29T04:11:28.346Z,101842.00
2022-08-29T04:13:55.696Z,101860.00
2022-08-29T04:16:30.739Z,101870.00
2022-08-29T04:18:58.990Z,101870.00
2022-08-29T04:21:26.151Z,101856.00
2022-08-29T04:23:54.598Z,101856.00
2022-08-29T04:26:38.075Z,101860.00
2022-08-29T04:29:07.918Z,101858.00
2022-08-29T04:31:36.735Z,101856.00
2022-08-29T04:34:07.274Z,101860.00
2022-08-29T04:36:36.749Z,101857.00
2022-08-29T04:39:05.383Z,101860.00
2022-08-29T04:41:33.553Z,101850.00
2022-08-29T04:44:01.949Z,101839.00
2022-08-29T04:46:29.269Z,101842.00
2022-08-29T04:49:00.562Z,101851.00
2022-08-29T04:51:30.568Z,101846.00
2022-08-29T04:53:57.719Z,101844.00
2022-08-29T04:56:25.220Z,101850.00
2022-08-29T04:58:52.525Z,101845.00
2022-08-29T05:01:24.454Z,101871.00
2022-08-29T05:03:55.552Z,101855.00
2022-08-29T05:06:24.514Z,101869.00
2022-08-29T05:08:55.077Z,101863.00
2022-08-29T05:11:28.675Z,101871.00
2022-08-29T05:13:55.946Z,101873.00
2022-08-29T05:16:25.747Z,101880.00
2022-08-29T05:18:55.883Z,101875.00
2022-08-29T05:21:34.961Z,101892.00
2022-08-29T05:24:09.959Z,101891.00
2022-08-29T05:26:43.702Z,101897.00
2022-08-29T05:29:13.003Z,101891.00
2022-08-29T05:31:44.535Z,101892.00
2022-08-29T05:34:34.812Z,101899.00
2022-08-29T05:37:02.170Z,101886.00
2022-08-29T05:39:29.774Z,101904.00
2022-08-29T05:41:58.829Z,101909.00
2022-08-29T05:44:35.089Z,101894.00
2022-08-29T05:47:04.905Z,101908.00
2022-08-29T05:49:43.829Z,101896.00
2022-08-29T05:52:17.359Z,101911.00
2022-08-29T05:54:46.072Z,101912.00
2022-08-29T05:57:19.319Z,101913.00
2022-08-29T06:00:25.543Z,101912.00
2022-08-29T06:02:55.065Z,101916.00
2022-08-29T06:06:18.845Z,101920.00
2022-08-29T06:08:46.836Z,101920.00
2022-08-29T06:11:30.237Z,101918.00
2022-08-29T06:13:59.452Z,101928.00
2022-08-29T06:16:29.351Z,101935.00
2022-08-29T06:18:57.427Z,101915.00
2022-08-29T06:21:25.039Z,101916.00
2022-08-29T06:23:52.668Z,101926.00
2022-08-29T06:26:20.365Z,101923.00
2022-08-29T06:28:48.657Z,101932.00
2022-08-29T06:31:28.278Z,101926.00
2022-08-29T06:34:00.072Z,101927.00
2022-08-29T06:36:29.912Z,101918.00
2022-08-29T06:38:59.833Z,101912.00
2022-08-29T06:41:28.128Z,101923.00
2022-08-29T06:43:57.187Z,101922.00
2022-08-29T06:46:30.063Z,101927.00
2022-08-29T06:49:00.444Z,101924.00
2022-08-29T06:51:36.032Z,101919.00
2022-08-29T06:54:08.372Z,101922.00
2022-08-29T06:56:38.555Z,101917.00
2022-08-29T06:59:07.425Z,101924.00
2022-08-29T07:01:35.908Z,101919.00
2022-08-29T07:04:03.957Z,101924.00
2022-08-29T07:06:32.945Z,101926.00
2022-08-29T07:09:05.264Z,101925.00
2022-08-29T07:11:37.707Z,101929.00
2022-08-29T07:14:08.358Z,101929.00
2022-08-29T07:16:36.804Z,101921.00
2022-08-29T07:19:06.815Z,101926.00
2022-08-29T07:21:34.434Z,101907.00
2022-08-29T07:24:02.533Z,101920.00
2022-08-29T07:26:51.516Z,101934.00
2022-08-29T07:29:25.281Z,101929.00
2022-08-29T07:31:53.598Z,101925.00
2022-08-29T07:34:21.097Z,101921.00
2022-08-29T07:36:48.785Z,101915.00
2022-08-29T07:39:20.153Z,101924.00
2022-08-29T07:46:29.659Z,101928.00
2022-08-29T07:48:59.749Z,101931.00
2022-08-29T07:51:28.348Z,101927.00
2022-08-29T07:53:57.541Z,101932.00
2022-08-29T07:56:41.465Z,101930.00
2022-08-29T07:59:10.005Z,101938.00
2022-08-29T08:02:57.137Z,101934.00
2022-08-29T08:05:26.416Z,101931.00
2022-08-29T08:07:57.186Z,101933.00
2022-08-29T08:10:24.960Z,101933.00
2022-08-29T08:12:52.113Z,101939.00
2022-08-29T08:15:22.128Z,101932.00
2022-08-29T08:17:49.544Z,101943.00
2022-08-29T08:20:17.065Z,101941.00
2022-08-29T08:22:46.950Z,101945.00
2022-08-29T08:25:14.276Z,101945.00
2022-08-29T08:27:43.485Z,101941.00
2022-08-29T08:30:14.298Z,101941.00
2022-08-29T08:32:46.402Z,101939.00
2022-08-29T08:35:16.420Z,101940.00
2022-08-29T08:37:44.452Z,101941.00
2022-08-29T08:40:27.043Z,101939.00
2022-08-29T08:43:03.581Z,101940.00
2022-08-29T08:45:44.987Z,101934.00
2022-08-29T08:48:24.491Z,101931.00
2022-08-29T08:51:06.953Z,101933.00
2022-08-29T08:53:40.400Z,101922.00
2022-08-29T08:56:19.659Z,101939.00
2022-08-29T08:59:25.012Z,101941.00
2022-08-29T09:02:17.076Z,101936.00
2022-08-29T09:05:25.826Z,101933.00
2022-08-29T09:08:08.322Z,101920.00
2022-08-29T09:11:04.037Z,101928.00
2022-08-29T09:14:14.636Z,101937.00
2022-08-29T09:16:49.708Z,101938.00
2022-08-29T09:19:17.835Z,101938.00
2022-08-29T09:21:55.834Z,101942.00
2022-08-29T09:24:46.822Z,101951.00
2022-08-29T09:27:27.431Z,101932.00
2022-08-29T09:30:07.518Z,101935.00
2022-08-29T09:32:52.976Z,101940.00
2022-08-29T09:35:34.629Z,101937.00
2022-08-29T09:38:21.702Z,101944.00
2022-08-29T09:41:00.511Z,101944.00
2022-08-29T09:43:44.405Z,101945.00
2022-08-29T09:46:12.232Z,101951.00
2022-08-29T09:48:47.870Z,101949.00
2022-08-29T09:51:28.798Z,101949.00
2022-08-29T09:54:16.815Z,101947.00
2022-08-29T09:56:58.568Z,101932.00
2022-08-29T09:59:37.687Z,101932.00
2022-08-29T10:02:44.132Z,101936.00
2022-08-29T10:05:41.907Z,101932.00
2022-08-29T10:08:36.571Z,101939.00
2022-08-29T10:11:21.078Z,101927.00
2022-08-29T10:14:17.800Z,101926.00
2022-08-29T10:17:32.645Z,101913.00
2022-08-29T10:20:00.017Z,101908.00
2022-08-29T10:22:40.879Z,101907.00
2022-08-29T10:25:34.178Z,101914.00
2022-08-29T10:28:31.497Z,101908.00
2022-08-29T10:31:19.405Z,101905.00
2022-08-29T10:34:27.051Z,101903.00
2022-08-29T10:37:24.001Z,101916.00
2022-08-29T10:40:38.350Z,101905.00
2022-08-29T10:43:36.058Z,101908.00
2022-08-29T10:46:49.829Z,101917.00
2022-08-29T10:49:52.710Z,101912.00
2022-08-29T10:52:41.501Z,101911.00
2022-08-29T10:55:30.561Z,101906.00
2022-08-29T10:58:12.386Z,101908.00
2022-08-29T11:01:10.483Z,101904.00
2022-08-29T11:04:09.886Z,101901.00
2022-08-29T11:06:47.499Z,101887.00
2022-08-29T11:09:36.360Z,101882.00
2022-08-29T11:12:19.083Z,101875.00
2022-08-29T11:15:03.687Z,101877.00
2022-08-29T11:17:39.125Z,101872.00
2022-08-29T11:20:19.892Z,101875.00
2022-08-29T11:23:30.627Z,101871.00
2022-08-29T11:26:04.344Z,101865.00
2022-08-29T11:31:43.000Z,101858.00
2022-08-29T11:34:39.150Z,101855.00
2022-08-29T11:37:29.285Z,101859.00
2022-08-29T11:40:05.300Z,101861.00
2022-08-29T11:42:54.459Z,101853.00
2022-08-29T11:45:36.905Z,101850.00
2022-08-29T11:48:34.240Z,101850.00
2022-08-29T11:51:29.712Z,101856.00
2022-08-29T11:54:29.006Z,101846.00
2022-08-29T11:57:02.475Z,101848.00
2022-08-29T11:59:56.780Z,101848.00
2022-08-29T12:02:48.306Z,101840.00
2022-08-29T12:05:20.894Z,101844.00
2022-08-29T12:07:54.478Z,101837.00
2022-08-29T12:10:26.742Z,101842.00
2022-08-29T12:13:00.757Z,101835.00
2022-08-29T12:15:27.840Z,101832.00
2022-08-29T12:18:08.262Z,101835.00
2022-08-29T12:20:45.697Z,101832.00
2022-08-29T12:23:30.230Z,101826.00
2022-08-29T12:26:22.925Z,101820.00
2022-08-29T12:29:02.085Z,101829.00
2022-08-29T12:32:18.797Z,101833.00
2022-08-29T12:35:23.999Z,101824.00
2022-08-29T12:38:25.205Z,101826.00
2022-08-29T12:41:27.618Z,101825.00
2022-08-29T12:44:03.980Z,101823.00
2022-08-29T12:46:44.695Z,101823.00
2022-08-29T12:49:26.989Z,101823.00
2022-08-29T12:52:03.823Z,101823.00
2022-08-29T12:54:38.543Z,101813.00
2022-08-29T12:57:22.668Z,101813.00
2022-08-29T12:59:54.267Z,101807.00
2022-08-29T13:02:36.611Z,101798.00
2022-08-29T13:05:28.907Z,101804.00
2022-08-29T13:08:02.831Z,101796.00
2022-08-29T13:10:30.751Z,101804.00
2022-08-29T13:13:25.902Z,101788.00
2022-08-29T13:15:57.429Z,101793.00
2022-08-29T13:18:25.311Z,101792.00
2022-08-29T13:21:22.267Z,101783.00
2022-08-29T13:24:05.088Z,101779.00
2022-08-29T13:26:34.936Z,101767.00
2022-08-29T13:29:44.189Z,101770.00
2022-08-29T13:32:24.056Z,101765.00
2022-08-29T13:35:18.918Z,101776.00
2022-08-29T13:38:16.676Z,101775.00
2022-08-29T13:40:50.726Z,101769.00
2022-08-29T13:43:42.224Z,101764.00
2022-08-29T13:46:26.582Z,101757.00
2022-08-29T13:49:04.946Z,101761.00
2022-08-29T13:51:32.133Z,101751.00
2022-08-29T13:53:59.395Z,101756.00
2022-08-29T13:56:34.029Z,101762.00
2022-08-29T13:59:02.866Z,101747.00
2022-08-29T14:02:06.912Z,101745.00
2022-08-29T14:07:04.776Z,101746.00
2022-08-29T14:09:45.687Z,101746.00
2022-08-29T14:12:14.328Z,101750.00
2022-08-29T14:14:43.743Z,101753.00
2022-08-29T14:17:18.343Z,101741.00
2022-08-29T14:19:47.525Z,101738.00
2022-08-29T14:22:15.620Z,101735.00
2022-08-29T14:24:43.568Z,101735.00
2022-08-29T14:27:11.018Z,101737.00
2022-08-29T14:29:38.551Z,101736.00
2022-08-29T14:32:06.107Z,101738.00
2022-08-29T14:34:33.362Z,101735.00
2022-08-29T14:37:02.985Z,101728.00
2022-08-29T14:39:30.599Z,101729.00
2022-08-29T14:41:57.780Z,101731.00
2022-08-29T14:44:25.314Z,101733.00
2022-08-29T14:46:52.862Z,101725.00
2022-08-29T14:49:20.782Z,101713.00
2022-08-29T14:51:49.277Z,101725.00
2022-08-29T14:54:18.350Z,101713.00
2022-08-29T14:56:49.315Z,101715.00
2022-08-29T14:59:22.964Z,101713.00
2022-08-29T15:01:54.341Z,101724.00
2022-08-29T15:04:35.056Z,101724.00
2022-08-29T15:07:08.040Z,101713.00
2022-08-29T15:09:36.125Z,101715.00
2022-08-29T15:12:04.752Z,101722.00
2022-08-29T15:14:36.868Z,101720.00
2022-08-29T15:17:06.573Z,101717.00
2022-08-29T15:22:23.496Z,101703.00
2022-08-29T15:24:52.378Z,101701.00
2022-08-29T15:27:27.081Z,101694.00
2022-08-29T15:29:55.509Z,101694.00
2022-08-29T15:32:22.891Z,101696.00
2022-08-29T15:34:50.760Z,101685.00
2022-08-29T15:37:20.915Z,101689.00
2022-08-29T15:39:50.201Z,101683.00
2022-08-29T15:42:28.789Z,101681.00
2022-08-29T15:44:58.679Z,101684.00
2022-08-29T15:47:26.412Z,101684.00
2022-08-29T15:49:54.943Z,101675.00
2022-08-29T15:52:22.375Z,101685.00
2022-08-29T15:54:49.643Z,101682.00
2022-08-29T15:57:17.306Z,101675.00
2022-08-29T15:59:57.526Z,101682.00
2022-08-29T16:02:25.338Z,101682.00
2022-08-29T16:04:56.671Z,101679.00
2022-08-29T16:07:28.888Z,101682.00
2022-08-29T16:10:01.468Z,101680.00
2022-08-29T16:12:31.129Z,101676.00
2022-08-29T16:14:59.942Z,101675.00
2022-08-29T16:17:29.920Z,101682.00
2022-08-29T16:19:58.520Z,101681.00
2022-08-29T16:22:29.644Z,101677.00
2022-08-29T16:24:57.330Z,101684.00
2022-08-29T16:27:24.951Z,101685.00
2022-08-29T16:29:53.999Z,101682.00
2022-08-29T16:32:21.692Z,101680.00
2022-08-29T16:34:48.821Z,101674.00
2022-08-29T16:37:16.355Z,101670.00
2022-08-29T16:39:43.721Z,101672.00
2022-08-29T16:42:12.715Z,101677.00
2022-08-29T16:44:40.833Z,101675.00
2022-08-29T16:47:08.354Z,101676.00
2022-08-29T16:49:35.952Z,101669.00
2022-08-29T16:52:05.420Z,101670.00
2022-08-29T16:54:33.037Z,101669.00
2022-08-29T16:57:00.477Z,101657.00
2022-08-29T16:59:28.015Z,101665.00
2022-08-29T17:01:55.905Z,101673.00
2022-08-29T17:04:30.664Z,101663.00
2022-08-29T17:06:59.176Z,101667.00
2022-08-29T17:09:26.610Z,101660.00
2022-08-29T17:11:56.273Z,101670.00
2022-08-29T17:14:25.986Z,101660.00
2022-08-29T17:16:55.854Z,101664.00
2022-08-29T17:19:24.332Z,101672.00
2022-08-29T17:21:52.595Z,101664.00
2022-08-29T17:24:21.438Z,101664.00
2022-08-29T17:26:49.303Z,101661.00
2022-08-29T17:29:17.187Z,101667.00
2022-08-29T17:31:44.886Z,101663.00
2022-08-29T17:34:13.019Z,101670.00
2022-08-29T17:36:43.843Z,101656.00
2022-08-29T17:39:13.173Z,101660.00
2022-08-29T17:41:43.319Z,101665.00
2022-08-29T17:44:13.242Z,101662.00
2022-08-29T17:46:40.863Z,101679.00
2022-08-29T17:49:10.763Z,101672.00
2022-08-29T17:51:39.854Z,101668.00
2022-08-29T17:54:14.725Z,101673.00
2022-08-29T17:56:59.102Z,101676.00
2022-08-29T17:59:33.040Z,101685.00
2022-08-29T18:02:01.161Z,101676.00
2022-08-29T18:04:29.615Z,101686.00
2022-08-29T18:06:57.805Z,101682.00
2022-08-29T18:09:28.966Z,101681.00
2022-08-29T18:11:58.483Z,101682.00
2022-08-29T18:14:27.395Z,101681.00
2022-08-29T18:16:55.985Z,101679.00
2022-08-29T18:19:24.904Z,101679.00
2022-08-29T18:21:53.693Z,101681.00
2022-08-29T18:24:22.080Z,101688.00
2022-08-29T18:26:50.925Z,101682.00
2022-08-29T18:29:18.995Z,101668.00
2022-08-29T18:31:46.356Z,101676.00
2022-08-29T18:34:15.454Z,101670.00
2022-08-29T18:36:45.951Z,101672.00
2022-08-29T18:39:16.525Z,101668.00
2022-08-29T18:41:44.860Z,101680.00
2022-08-29T18:44:13.045Z,101667.00
2022-08-29T18:46:48.071Z,101674.00
2022-08-29T18:49:17.077Z,101680.00
2022-08-29T18:51:44.686Z,101679.00
2022-08-29T18:54:15.141Z,101684.00
2022-08-29T18:56:44.825Z,101678.00
2022-08-29T18:59:12.851Z,101682.00
2022-08-29T19:01:42.988Z,101682.00
2022-08-29T19:04:10.338Z,101678.00
2022-08-29T19:06:37.652Z,101682.00
2022-08-29T19:09:04.993Z,101674.00
2022-08-29T19:11:32.252Z,101697.00
2022-08-29T19:13:59.576Z,101688.00
2022-08-29T19:16:27.215Z,101692.00
2022-08-29T19:18:54.607Z,101692.00
2022-08-29T19:21:21.972Z,101690.00
2022-08-29T19:23:52.119Z,101687.00
2022-08-29T19:26:32.766Z,101695.00
2022-08-29T19:29:06.666Z,101692.00
2022-08-29T19:31:34.170Z,101684.00
2022-08-29T19:34:01.561Z,101683.00
2022-08-29T19:36:29.149Z,101696.00
2022-08-29T19:38:56.823Z,101700.00
2022-08-29T19:41:25.046Z,101692.00
2022-08-29T19:43:53.449Z,101688.00
2022-08-29T19:46:23.907Z,101694.00
2022-08-29T19:48:52.675Z,101692.00
2022-08-29T19:51:24.725Z,101700.00
2022-08-29T19:53:54.053Z,101699.00
2022-08-29T19:56:21.254Z,101698.00
2022-08-29T19:58:49.401Z,101697.00
2022-08-29T20:01:17.982Z,101699.00
2022-08-29T20:03:54.691Z,101703.00
2022-08-29T20:06:21.973Z,101697.00
2022-08-29T20:08:50.260Z,101695.00
2022-08-29T20:11:23.217Z,101693.00
2022-08-29T20:13:53.820Z,101690.00
2022-08-29T20:16:28.751Z,101705.00
2022-08-29T20:18:56.294Z,101705.00
2022-08-29T20:21:24.707Z,101700.00
2022-08-29T20:23:57.589Z,101695.00
2022-08-29T20:26:28.544Z,101705.00
2022-08-29T20:28:58.548Z,101697.00
2022-08-29T20:31:26.550Z,101703.00
2022-08-29T20:33:54.036Z,101705.00
2022-08-29T20:36:42.865Z,101697.00
2022-08-29T20:39:18.222Z,101703.00
2022-08-29T20:41:55.721Z,101700.00
2022-08-29T20:44:33.538Z,101702.00
2022-08-29T20:47:01.482Z,101701.00
2022-08-29T20:49:28.664Z,101703.00
2022-08-29T20:51:56.006Z,101704.00
2022-08-29T20:54:25.123Z,101704.00
2022-08-29T20:56:54.091Z,101712.00
2022-08-29T20:59:26.536Z,101698.00
2022-08-29T21:01:55.799Z,101710.00
2022-08-29T21:04:42.089Z,101713.00
2022-08-29T21:07:14.921Z,101699.00
2022-08-29T21:09:46.489Z,101704.00
2022-08-29T21:12:15.640Z,101692.00
2022-08-29T21:14:42.921Z,101692.00
2022-08-29T21:17:13.113Z,101703.00
2022-08-29T21:19:40.840Z,101696.00
2022-08-29T21:22:11.495Z,101699.00
2022-08-29T21:24:39.451Z,101699.00
2022-08-29T21:27:06.829Z,101713.00
2022-08-29T21:29:37.259Z,101712.00
2022-08-29T21:32:04.746Z,101699.00
2022-08-29T21:34:32.281Z,101708.00
2022-08-29T21:36:59.468Z,101714.00
2022-08-29T21:39:28.170Z,101703.00
2022-08-29T21:41:57.248Z,101697.00
2022-08-29T21:44:24.523Z,101698.00
2022-08-29T21:46:52.894Z,101697.00
2022-08-29T21:49:22.156Z,101703.00
2022-08-29T21:51:50.484Z,101702.00
2022-08-29T21:54:18.619Z,101704.00
2022-08-29T21:56:47.544Z,101708.00
2022-08-29T21:59:17.894Z,101701.00
2022-08-29T22:01:46.858Z,101712.00
2022-08-29T22:04:28.538Z,101709.00
2022-08-29T22:06:59.259Z,101707.00
2022-08-29T22:09:28.122Z,101712.00
2022-08-29T22:11:56.283Z,101727.00
2022-08-29T22:14:46.371Z,101725.00
2022-08-29T22:17:14.457Z,101730.00
2022-08-29T22:19:42.258Z,101716.00
2022-08-29T22:22:09.739Z,101725.00
2022-08-29T22:24:37.663Z,101728.00
2022-08-29T22:27:05.154Z,101731.00
2022-08-29T22:29:33.606Z,101738.00
2022-08-29T22:32:00.806Z,101727.00
2022-08-29T22:34:28.007Z,101734.00
2022-08-29T22:36:56.369Z,101731.00
2022-08-29T22:39:23.780Z,101734.00
2022-08-29T22:41:51.345Z,101737.00
2022-08-29T22:47:06.267Z,101740.00
2022-08-29T22:49:33.703Z,101735.00
2022-08-29T22:52:01.901Z,101739.00
2022-08-29T22:54:35.138Z,101730.00
2022-08-29T22:57:09.456Z,101736.00
2022-08-29T22:59:39.015Z,101727.00
2022-08-29T23:02:07.969Z,101734.00
2022-08-29T23:04:36.575Z,101735.00
2022-08-29T23:07:05.688Z,101739.00
2022-08-29T23:09:35.305Z,101733.00
2022-08-29T23:12:06.075Z,101735.00
2022-08-29T23:14:36.232Z,101731.00
2022-08-29T23:17:05.883Z,101725.00
2022-08-29T23:19:33.694Z,101719.00
2022-08-29T23:22:02.273Z,101731.00
2022-08-29T23:24:30.209Z,101719.00
2022-08-29T23:26:57.396Z,101726.00
2022-08-29T23:29:24.754Z,101712.00
2022-08-29T23:31:51.933Z,101728.00
2022-08-29T23:34:19.270Z,101735.00
2022-08-29T23:36:46.470Z,101731.00
2022-08-29T23:39:13.681Z,101747.00
2022-08-29T23:41:41.101Z,101729.00
2022-08-29T23:44:08.562Z,101736.00
2022-08-29T23:46:38.124Z,101724.00
2022-08-29T23:49:07.094Z,101728.00
2022-08-29T23:51:34.625Z,101725.00
2022-08-29T23:54:02.028Z,101731.00
2022-08-29T23:56:29.379Z,101718.00
2022-08-29T23:58:57.075Z,101724.00
